sensor_id;sensor_type;location;lat;lon;timestamp;P1;durP1;ratioP1;P2;durP2;ratioP2
73100;SDS011;61288;53.446;-2.266;2023-04-01T00:02:06;1.98;;;1.10;;
73100;SDS011;61288;53.446;-2.266;2023-04-01T00:04:31;5.03;;;1.30;;
73100;SDS011;61288;53.446;-2.266;2023-04-01T00:06:57;3.47;;;1.20;;
73100;SDS011;61288;53.446;-2.266;2023-04-01T00:09:23;3.55;;;1.27;;
73100;SDS011;61288;53.446;-2.266;2023-04-01T00:11:48;2.25;;;1.20;;
73100;SDS011;61288;53.446;-2.266;2023-04-01T00:14:14;3.92;;;1.10;;
73100;SDS011;61288;53.446;-2.266;2023-04-01T00:16:39;3.05;;;1.45;;
73100;SDS011;61288;53.446;-2.266;2023-04-01T00:19:05;1.50;;;0.98;;
73100;SDS011;61288;53.446;-2.266;2023-04-01T00:21:31;2.15;;;1.20;;
73100;SDS011;61288;53.446;-2.266;2023-04-01T00:23:56;3.00;;;1.00;;
73100;SDS011;61288;53.446;-2.266;2023-04-01T00:26:23;2.30;;;1.08;;
73100;SDS011;61288;53.446;-2.266;2023-04-01T00:28:50;1.02;;;0.63;;
73100;SDS011;61288;53.446;-2.266;2023-04-01T00:31:16;1.13;;;0.70;;
73100;SDS011;61288;53.446;-2.266;2023-04-01T00:33:41;2.50;;;1.20;;
73100;SDS011;61288;53.446;-2.266;2023-04-01T00:36:11;5.45;;;1.42;;
73100;SDS011;61288;53.446;-2.266;2023-04-01T00:38:42;1.60;;;0.90;;
73100;SDS011;61288;53.446;-2.266;2023-04-01T00:41:08;1.23;;;1.08;;
73100;SDS011;61288;53.446;-2.266;2023-04-01T00:43:39;2.78;;;1.40;;
73100;SDS011;61288;53.446;-2.266;2023-04-01T00:46:05;1.85;;;1.10;;
73100;SDS011;61288;53.446;-2.266;2023-04-01T00:48:33;2.50;;;1.20;;
73100;SDS011;61288;53.446;-2.266;2023-04-01T00:51:02;3.97;;;1.35;;
73100;SDS011;61288;53.446;-2.266;2023-04-01T00:53:39;1.77;;;1.10;;
73100;SDS011;61288;53.446;-2.266;2023-04-01T00:56:15;2.20;;;1.20;;
73100;SDS011;61288;53.446;-2.266;2023-04-01T00:58:46;1.77;;;1.15;;
73100;SDS011;61288;53.446;-2.266;2023-04-01T01:01:16;2.42;;;1.20;;
73100;SDS011;61288;53.446;-2.266;2023-04-01T01:03:42;4.07;;;1.10;;
73100;SDS011;61288;53.446;-2.266;2023-04-01T01:08:58;2.53;;;1.23;;
73100;SDS011;61288;53.446;-2.266;2023-04-01T01:11:35;3.28;;;1.13;;
73100;SDS011;61288;53.446;-2.266;2023-04-01T01:14:10;3.53;;;1.20;;
73100;SDS011;61288;53.446;-2.266;2023-04-01T01:17:09;1.45;;;1.00;;
73100;SDS011;61288;53.446;-2.266;2023-04-01T01:31:37;3.67;;;1.27;;
73100;SDS011;61288;53.446;-2.266;2023-04-01T01:34:40;2.42;;;1.33;;
73100;SDS011;61288;53.446;-2.266;2023-04-01T01:37:10;2.25;;;1.10;;
73100;SDS011;61288;53.446;-2.266;2023-04-01T01:39:39;3.30;;;1.27;;
73100;SDS011;61288;53.446;-2.266;2023-04-01T01:42:11;1.98;;;1.13;;
73100;SDS011;61288;53.446;-2.266;2023-04-01T01:44:40;1.35;;;1.10;;
73100;SDS011;61288;53.446;-2.266;2023-04-01T01:47:09;4.72;;;1.30;;
73100;SDS011;61288;53.446;-2.266;2023-04-01T01:49:35;3.80;;;1.40;;
73100;SDS011;61288;53.446;-2.266;2023-04-01T01:52:04;3.15;;;1.40;;
73100;SDS011;61288;53.446;-2.266;2023-04-01T01:54:29;3.40;;;1.40;;
73100;SDS011;61288;53.446;-2.266;2023-04-01T01:56:57;4.57;;;2.08;;
73100;SDS011;61288;53.446;-2.266;2023-04-01T01:59:35;2.63;;;1.33;;
73100;SDS011;61288;53.446;-2.266;2023-04-01T02:02:03;3.53;;;1.60;;
73100;SDS011;61288;53.446;-2.266;2023-04-01T02:04:36;4.13;;;1.40;;
73100;SDS011;61288;53.446;-2.266;2023-04-01T02:07:06;3.58;;;0.93;;
73100;SDS011;61288;53.446;-2.266;2023-04-01T02:09:36;2.65;;;1.40;;
73100;SDS011;61288;53.446;-2.266;2023-04-01T02:12:03;3.55;;;1.60;;
73100;SDS011;61288;53.446;-2.266;2023-04-01T02:14:47;3.67;;;1.35;;
73100;SDS011;61288;53.446;-2.266;2023-04-01T02:17:23;2.55;;;1.25;;
73100;SDS011;61288;53.446;-2.266;2023-04-01T02:19:52;2.55;;;1.38;;
73100;SDS011;61288;53.446;-2.266;2023-04-01T02:22:24;2.42;;;1.63;;
73100;SDS011;61288;53.446;-2.266;2023-04-01T02:24:53;4.68;;;1.58;;
73100;SDS011;61288;53.446;-2.266;2023-04-01T02:27:22;5.03;;;1.40;;
73100;SDS011;61288;53.446;-2.266;2023-04-01T02:29:49;2.55;;;1.50;;
73100;SDS011;61288;53.446;-2.266;2023-04-01T02:32:15;1.85;;;1.10;;
73100;SDS011;61288;53.446;-2.266;2023-04-01T02:34:42;5.82;;;1.27;;
73100;SDS011;61288;53.446;-2.266;2023-04-01T02:37:09;2.10;;;1.30;;
73100;SDS011;61288;53.446;-2.266;2023-04-01T02:39:39;6.10;;;1.70;;
73100;SDS011;61288;53.446;-2.266;2023-04-01T02:42:05;2.95;;;1.38;;
73100;SDS011;61288;53.446;-2.266;2023-04-01T02:44:31;2.00;;;1.10;;
73100;SDS011;61288;53.446;-2.266;2023-04-01T02:46:57;2.17;;;1.30;;
73100;SDS011;61288;53.446;-2.266;2023-04-01T02:49:22;1.63;;;1.00;;
73100;SDS011;61288;53.446;-2.266;2023-04-01T02:51:48;3.67;;;1.30;;
73100;SDS011;61288;53.446;-2.266;2023-04-01T02:54:17;2.22;;;1.17;;
73100;SDS011;61288;53.446;-2.266;2023-04-01T02:56:43;4.43;;;1.52;;
73100;SDS011;61288;53.446;-2.266;2023-04-01T02:59:08;3.80;;;1.30;;
73100;SDS011;61288;53.446;-2.266;2023-04-01T03:01:34;2.47;;;1.38;;
73100;SDS011;61288;53.446;-2.266;2023-04-01T03:04:00;2.70;;;1.20;;
73100;SDS011;61288;53.446;-2.266;2023-04-01T03:06:25;3.90;;;1.30;;
73100;SDS011;61288;53.446;-2.266;2023-04-01T03:08:51;3.05;;;1.40;;
73100;SDS011;61288;53.446;-2.266;2023-04-01T03:11:16;3.38;;;1.50;;
73100;SDS011;61288;53.446;-2.266;2023-04-01T03:13:42;3.92;;;1.67;;
73100;SDS011;61288;53.446;-2.266;2023-04-01T03:16:07;2.72;;;1.27;;
73100;SDS011;61288;53.446;-2.266;2023-04-01T03:18:33;2.95;;;1.10;;
73100;SDS011;61288;53.446;-2.266;2023-04-01T03:23:48;3.08;;;1.33;;
73100;SDS011;61288;53.446;-2.266;2023-04-01T03:26:14;5.00;;;1.52;;
73100;SDS011;61288;53.446;-2.266;2023-04-01T03:28:40;3.45;;;1.38;;
73100;SDS011;61288;53.446;-2.266;2023-04-01T03:31:06;5.28;;;1.80;;
73100;SDS011;61288;53.446;-2.266;2023-04-01T03:33:32;2.25;;;1.40;;
73100;SDS011;61288;53.446;-2.266;2023-04-01T03:35:58;6.05;;;1.50;;
73100;SDS011;61288;53.446;-2.266;2023-04-01T03:38:23;3.55;;;1.30;;
73100;SDS011;61288;53.446;-2.266;2023-04-01T03:40:49;3.78;;;1.35;;
73100;SDS011;61288;53.446;-2.266;2023-04-01T03:43:14;4.22;;;1.88;;
73100;SDS011;61288;53.446;-2.266;2023-04-01T03:45:48;1.52;;;1.15;;
73100;SDS011;61288;53.446;-2.266;2023-04-01T03:48:16;3.40;;;1.35;;
73100;SDS011;61288;53.446;-2.266;2023-04-01T03:50:43;2.45;;;1.30;;
73100;SDS011;61288;53.446;-2.266;2023-04-01T03:53:11;1.95;;;1.20;;
73100;SDS011;61288;53.446;-2.266;2023-04-01T03:55:37;3.30;;;1.20;;
73100;SDS011;61288;53.446;-2.266;2023-04-01T03:58:04;2.63;;;1.33;;
73100;SDS011;61288;53.446;-2.266;2023-04-01T04:00:30;3.30;;;1.00;;
73100;SDS011;61288;53.446;-2.266;2023-04-01T04:02:56;3.97;;;0.90;;
73100;SDS011;61288;53.446;-2.266;2023-04-01T04:05:22;3.25;;;1.20;;
73100;SDS011;61288;53.446;-2.266;2023-04-01T04:07:49;3.30;;;1.17;;
73100;SDS011;61288;53.446;-2.266;2023-04-01T04:10:15;2.78;;;1.05;;
73100;SDS011;61288;53.446;-2.266;2023-04-01T04:12:41;4.28;;;1.15;;
73100;SDS011;61288;53.446;-2.266;2023-04-01T04:15:07;3.63;;;1.27;;
73100;SDS011;61288;53.446;-2.266;2023-04-01T04:17:33;3.00;;;1.08;;
73100;SDS011;61288;53.446;-2.266;2023-04-01T04:19:58;2.40;;;1.05;;
73100;SDS011;61288;53.446;-2.266;2023-04-01T04:22:24;5.95;;;1.65;;
73100;SDS011;61288;53.446;-2.266;2023-04-01T04:24:49;1.95;;;1.10;;
73100;SDS011;61288;53.446;-2.266;2023-04-01T04:27:15;4.03;;;1.20;;
73100;SDS011;61288;53.446;-2.266;2023-04-01T04:29:40;5.03;;;1.40;;
73100;SDS011;61288;53.446;-2.266;2023-04-01T04:35:02;2.38;;;1.30;;
73100;SDS011;61288;53.446;-2.266;2023-04-01T04:37:27;2.15;;;1.20;;
73100;SDS011;61288;53.446;-2.266;2023-04-01T04:39:53;5.95;;;1.30;;
73100;SDS011;61288;53.446;-2.266;2023-04-01T04:42:18;1.98;;;1.10;;
73100;SDS011;61288;53.446;-2.266;2023-04-01T04:44:44;1.98;;;1.20;;
73100;SDS011;61288;53.446;-2.266;2023-04-01T04:47:10;1.42;;;1.10;;
73100;SDS011;61288;53.446;-2.266;2023-04-01T04:49:35;3.17;;;1.30;;
73100;SDS011;61288;53.446;-2.266;2023-04-01T04:52:01;2.63;;;1.20;;
73100;SDS011;61288;53.446;-2.266;2023-04-01T04:54:26;3.63;;;1.38;;
73100;SDS011;61288;53.446;-2.266;2023-04-01T04:56:53;4.25;;;1.50;;
73100;SDS011;61288;53.446;-2.266;2023-04-01T04:59:19;2.03;;;1.10;;
73100;SDS011;61288;53.446;-2.266;2023-04-01T05:01:44;2.03;;;1.33;;
73100;SDS011;61288;53.446;-2.266;2023-04-01T05:04:10;4.28;;;1.38;;
73100;SDS011;61288;53.446;-2.266;2023-04-01T05:06:35;3.35;;;1.20;;
73100;SDS011;61288;53.446;-2.266;2023-04-01T05:09:01;2.78;;;1.38;;
73100;SDS011;61288;53.446;-2.266;2023-04-01T05:11:26;2.58;;;1.50;;
73100;SDS011;61288;53.446;-2.266;2023-04-01T05:13:52;3.22;;;1.00;;
73100;SDS011;61288;53.446;-2.266;2023-04-01T05:16:19;1.98;;;0.80;;
73100;SDS011;61288;53.446;-2.266;2023-04-01T05:18:45;3.05;;;0.90;;
73100;SDS011;61288;53.446;-2.266;2023-04-01T05:21:12;3.92;;;1.40;;
73100;SDS011;61288;53.446;-2.266;2023-04-01T05:23:39;4.20;;;1.25;;
73100;SDS011;61288;53.446;-2.266;2023-04-01T05:26:10;1.23;;;1.13;;
73100;SDS011;61288;53.446;-2.266;2023-04-01T05:28:37;4.32;;;1.42;;
73100;SDS011;61288;53.446;-2.266;2023-04-01T05:31:03;1.67;;;0.82;;
73100;SDS011;61288;53.446;-2.266;2023-04-01T05:33:30;1.08;;;0.63;;
73100;SDS011;61288;53.446;-2.266;2023-04-01T05:35:56;2.97;;;1.25;;
73100;SDS011;61288;53.446;-2.266;2023-04-01T05:38:30;1.23;;;1.00;;
73100;SDS011;61288;53.446;-2.266;2023-04-01T05:40:59;2.22;;;1.02;;
73100;SDS011;61288;53.446;-2.266;2023-04-01T05:43:25;1.60;;;1.00;;
73100;SDS011;61288;53.446;-2.266;2023-04-01T05:45:51;2.70;;;1.20;;
73100;SDS011;61288;53.446;-2.266;2023-04-01T05:48:16;3.95;;;0.95;;
73100;SDS011;61288;53.446;-2.266;2023-04-01T05:50:41;3.95;;;1.40;;
73100;SDS011;61288;53.446;-2.266;2023-04-01T05:53:07;2.67;;;1.10;;
73100;SDS011;61288;53.446;-2.266;2023-04-01T05:55:34;2.67;;;0.93;;
73100;SDS011;61288;53.446;-2.266;2023-04-01T05:58:00;3.28;;;1.20;;
73100;SDS011;61288;53.446;-2.266;2023-04-01T06:00:26;4.88;;;1.40;;
73100;SDS011;61288;53.446;-2.266;2023-04-01T06:02:51;2.67;;;1.20;;
73100;SDS011;61288;53.446;-2.266;2023-04-01T06:05:19;3.40;;;1.33;;
73100;SDS011;61288;53.446;-2.266;2023-04-01T06:07:48;2.25;;;1.25;;
73100;SDS011;61288;53.446;-2.266;2023-04-01T06:10:19;3.38;;;1.23;;
73100;SDS011;61288;53.446;-2.266;2023-04-01T06:13:04;3.67;;;1.20;;
73100;SDS011;61288;53.446;-2.266;2023-04-01T06:15:56;2.10;;;1.00;;
73100;SDS011;61288;53.446;-2.266;2023-04-01T06:26:50;2.83;;;1.20;;
73100;SDS011;61288;53.446;-2.266;2023-04-01T06:35:17;2.75;;;1.20;;
73100;SDS011;61288;53.446;-2.266;2023-04-01T06:37:54;2.03;;;0.93;;
73100;SDS011;61288;53.446;-2.266;2023-04-01T06:46:18;3.15;;;1.27;;
73100;SDS011;61288;53.446;-2.266;2023-04-01T06:54:24;4.38;;;1.25;;
73100;SDS011;61288;53.446;-2.266;2023-04-01T06:56:58;3.55;;;1.05;;
73100;SDS011;61288;53.446;-2.266;2023-04-01T06:59:28;3.03;;;1.30;;
73100;SDS011;61288;53.446;-2.266;2023-04-01T07:02:02;3.17;;;1.33;;
73100;SDS011;61288;53.446;-2.266;2023-04-01T07:04:48;4.22;;;1.48;;
73100;SDS011;61288;53.446;-2.266;2023-04-01T07:07:26;3.17;;;1.40;;
73100;SDS011;61288;53.446;-2.266;2023-04-01T07:09:59;1.60;;;1.10;;
73100;SDS011;61288;53.446;-2.266;2023-04-01T07:15:01;3.10;;;1.20;;
73100;SDS011;61288;53.446;-2.266;2023-04-01T07:17:53;4.45;;;1.25;;
73100;SDS011;61288;53.446;-2.266;2023-04-01T07:20:24;3.05;;;1.30;;
73100;SDS011;61288;53.446;-2.266;2023-04-01T07:22:56;2.65;;;1.33;;
73100;SDS011;61288;53.446;-2.266;2023-04-01T07:25:37;6.30;;;1.30;;
73100;SDS011;61288;53.446;-2.266;2023-04-01T07:28:06;4.05;;;1.65;;
73100;SDS011;61288;53.446;-2.266;2023-04-01T07:30:52;1.17;;;1.10;;
73100;SDS011;61288;53.446;-2.266;2023-04-01T07:36:41;3.92;;;1.25;;
73100;SDS011;61288;53.446;-2.266;2023-04-01T07:44:20;3.75;;;1.40;;
73100;SDS011;61288;53.446;-2.266;2023-04-01T07:46:57;1.85;;;1.42;;
73100;SDS011;61288;53.446;-2.266;2023-04-01T07:52:25;1.33;;;0.90;;
73100;SDS011;61288;53.446;-2.266;2023-04-01T08:00:07;2.85;;;1.20;;
73100;SDS011;61288;53.446;-2.266;2023-04-01T08:06:00;1.52;;;0.90;;
73100;SDS011;61288;53.446;-2.266;2023-04-01T08:13:50;3.42;;;1.33;;
73100;SDS011;61288;53.446;-2.266;2023-04-01T08:16:33;2.20;;;1.00;;
73100;SDS011;61288;53.446;-2.266;2023-04-01T08:21:54;2.13;;;1.00;;
73100;SDS011;61288;53.446;-2.266;2023-04-01T08:26:49;2.42;;;1.00;;
73100;SDS011;61288;53.446;-2.266;2023-04-01T08:29:22;1.35;;;1.05;;
73100;SDS011;61288;53.446;-2.266;2023-04-01T08:31:58;3.63;;;1.10;;
73100;SDS011;61288;53.446;-2.266;2023-04-01T08:34:30;1.45;;;1.00;;
73100;SDS011;61288;53.446;-2.266;2023-04-01T08:37:12;4.25;;;1.00;;
73100;SDS011;61288;53.446;-2.266;2023-04-01T08:39:56;1.67;;;1.00;;
73100;SDS011;61288;53.446;-2.266;2023-04-01T08:43:00;2.78;;;0.88;;
73100;SDS011;61288;53.446;-2.266;2023-04-01T08:46:06;1.55;;;1.00;;
73100;SDS011;61288;53.446;-2.266;2023-04-01T08:49:02;4.18;;;0.90;;
73100;SDS011;61288;53.446;-2.266;2023-04-01T09:02:51;3.00;;;0.82;;
73100;SDS011;61288;53.446;-2.266;2023-04-01T09:13:52;0.77;;;0.77;;
73100;SDS011;61288;53.446;-2.266;2023-04-01T09:22:18;2.80;;;0.88;;
73100;SDS011;61288;53.446;-2.266;2023-04-01T09:27:57;0.68;;;0.68;;
73100;SDS011;61288;53.446;-2.266;2023-04-01T09:30:41;2.72;;;0.90;;
73100;SDS011;61288;53.446;-2.266;2023-04-01T09:38:56;1.40;;;0.75;;
73100;SDS011;61288;53.446;-2.266;2023-04-01T09:41:28;3.72;;;0.55;;
73100;SDS011;61288;53.446;-2.266;2023-04-01T09:53:13;1.98;;;1.10;;
73100;SDS011;61288;53.446;-2.266;2023-04-01T09:58:59;0.98;;;0.70;;
73100;SDS011;61288;53.446;-2.266;2023-04-01T10:14:01;2.83;;;1.00;;
73100;SDS011;61288;53.446;-2.266;2023-04-01T10:44:42;1.10;;;0.82;;
73100;SDS011;61288;53.446;-2.266;2023-04-01T11:11:21;2.15;;;0.98;;
73100;SDS011;61288;53.446;-2.266;2023-04-01T11:29:52;2.90;;;0.85;;
73100;SDS011;61288;53.446;-2.266;2023-04-01T11:38:39;0.80;;;0.80;;
73100;SDS011;61288;53.446;-2.266;2023-04-01T11:46:52;11.27;;;1.58;;
73100;SDS011;61288;53.446;-2.266;2023-04-01T11:49:49;1.98;;;0.90;;
73100;SDS011;61288;53.446;-2.266;2023-04-01T12:17:18;1.27;;;0.90;;
73100;SDS011;61288;53.446;-2.266;2023-04-01T12:33:24;1.35;;;0.95;;
73100;SDS011;61288;53.446;-2.266;2023-04-01T12:36:05;2.05;;;1.00;;
73100;SDS011;61288;53.446;-2.266;2023-04-01T12:41:31;2.63;;;1.20;;
73100;SDS011;61288;53.446;-2.266;2023-04-01T12:47:13;1.95;;;1.00;;
73100;SDS011;61288;53.446;-2.266;2023-04-01T12:52:45;6.28;;;1.55;;
73100;SDS011;61288;53.446;-2.266;2023-04-01T12:55:41;1.77;;;1.05;;
73100;SDS011;61288;53.446;-2.266;2023-04-01T13:01:10;1.67;;;1.00;;
73100;SDS011;61288;53.446;-2.266;2023-04-01T13:12:00;2.60;;;1.10;;
73100;SDS011;61288;53.446;-2.266;2023-04-01T13:14:57;1.42;;;1.05;;
73100;SDS011;61288;53.446;-2.266;2023-04-01T13:26:06;2.53;;;1.20;;
73100;SDS011;61288;53.446;-2.266;2023-04-01T13:28:40;2.88;;;1.10;;
73100;SDS011;61288;53.446;-2.266;2023-04-01T13:31:32;2.35;;;1.20;;
73100;SDS011;61288;53.446;-2.266;2023-04-01T13:43:10;4.93;;;1.25;;
73100;SDS011;61288;53.446;-2.266;2023-04-01T13:59:01;3.47;;;1.13;;
73100;SDS011;61288;53.446;-2.266;2023-04-01T14:10:13;1.42;;;1.10;;
73100;SDS011;61288;53.446;-2.266;2023-04-01T14:13:22;1.52;;;1.00;;
73100;SDS011;61288;53.446;-2.266;2023-04-01T14:19:08;4.75;;;1.55;;
73100;SDS011;61288;53.446;-2.266;2023-04-01T14:24:36;1.85;;;1.15;;
73100;SDS011;61288;53.446;-2.266;2023-04-01T14:41:13;1.75;;;1.20;;
73100;SDS011;61288;53.446;-2.266;2023-04-01T14:49:04;3.38;;;1.05;;
73100;SDS011;61288;53.446;-2.266;2023-04-01T14:51:40;1.10;;;0.90;;
73100;SDS011;61288;53.446;-2.266;2023-04-01T14:54:16;3.13;;;1.20;;
73100;SDS011;61288;53.446;-2.266;2023-04-01T14:57:01;2.45;;;1.15;;
73100;SDS011;61288;53.446;-2.266;2023-04-01T14:59:53;3.08;;;1.20;;
73100;SDS011;61288;53.446;-2.266;2023-04-01T15:08:38;6.57;;;1.52;;
73100;SDS011;61288;53.446;-2.266;2023-04-01T15:20:33;1.55;;;1.23;;
73100;SDS011;61288;53.446;-2.266;2023-04-01T15:23:24;5.40;;;1.38;;
73100;SDS011;61288;53.446;-2.266;2023-04-01T15:26:04;1.70;;;1.10;;
73100;SDS011;61288;53.446;-2.266;2023-04-01T15:28:56;2.58;;;1.40;;
73100;SDS011;61288;53.446;-2.266;2023-04-01T15:43:05;3.17;;;1.20;;
73100;SDS011;61288;53.446;-2.266;2023-04-01T15:45:39;2.95;;;1.05;;
73100;SDS011;61288;53.446;-2.266;2023-04-01T16:21:51;4.32;;;1.40;;
73100;SDS011;61288;53.446;-2.266;2023-04-01T16:25:14;2.85;;;1.40;;
73100;SDS011;61288;53.446;-2.266;2023-04-01T16:27:29;3.05;;;1.52;;
73100;SDS011;61288;53.446;-2.266;2023-04-01T16:33:19;4.97;;;1.75;;
73100;SDS011;61288;53.446;-2.266;2023-04-01T16:38:32;4.93;;;1.77;;
73100;SDS011;61288;53.446;-2.266;2023-04-01T16:41:24;4.32;;;1.90;;
73100;SDS011;61288;53.446;-2.266;2023-04-01T16:43:59;5.90;;;1.50;;
73100;SDS011;61288;53.446;-2.266;2023-04-01T16:46:49;6.03;;;2.05;;
73100;SDS011;61288;53.446;-2.266;2023-04-01T16:49:31;6.20;;;1.85;;
73100;SDS011;61288;53.446;-2.266;2023-04-01T16:57:25;8.23;;;2.28;;
73100;SDS011;61288;53.446;-2.266;2023-04-01T17:00:09;7.75;;;2.47;;
73100;SDS011;61288;53.446;-2.266;2023-04-01T17:05:54;6.90;;;2.10;;
73100;SDS011;61288;53.446;-2.266;2023-04-01T17:08:30;8.82;;;2.25;;
73100;SDS011;61288;53.446;-2.266;2023-04-01T17:11:31;8.05;;;2.17;;
73100;SDS011;61288;53.446;-2.266;2023-04-01T17:19:18;8.90;;;2.92;;
73100;SDS011;61288;53.446;-2.266;2023-04-01T17:21:57;9.38;;;2.92;;
73100;SDS011;61288;53.446;-2.266;2023-04-01T17:24:37;9.32;;;2.92;;
73100;SDS011;61288;53.446;-2.266;2023-04-01T17:30:24;6.78;;;2.55;;
73100;SDS011;61288;53.446;-2.266;2023-04-01T17:35:57;9.73;;;2.38;;
73100;SDS011;61288;53.446;-2.266;2023-04-01T17:49:39;6.95;;;2.50;;
73100;SDS011;61288;53.446;-2.266;2023-04-01T17:57:53;9.30;;;2.90;;
73100;SDS011;61288;53.446;-2.266;2023-04-01T18:09:15;7.07;;;2.20;;
73100;SDS011;61288;53.446;-2.266;2023-04-01T18:14:49;10.05;;;2.50;;
73100;SDS011;61288;53.446;-2.266;2023-04-01T18:17:27;7.53;;;2.50;;
73100;SDS011;61288;53.446;-2.266;2023-04-01T18:23:00;8.18;;;2.42;;
73100;SDS011;61288;53.446;-2.266;2023-04-01T18:25:43;8.52;;;2.47;;
73100;SDS011;61288;53.446;-2.266;2023-04-01T18:31:08;10.15;;;2.83;;
73100;SDS011;61288;53.446;-2.266;2023-04-01T18:52:59;7.20;;;2.85;;
73100;SDS011;61288;53.446;-2.266;2023-04-01T18:55:41;11.57;;;3.30;;
73100;SDS011;61288;53.446;-2.266;2023-04-01T18:58:20;10.43;;;2.85;;
73100;SDS011;61288;53.446;-2.266;2023-04-01T19:03:25;9.30;;;2.40;;
73100;SDS011;61288;53.446;-2.266;2023-04-01T19:06:00;12.23;;;3.05;;
73100;SDS011;61288;53.446;-2.266;2023-04-01T19:08:35;12.65;;;2.85;;
73100;SDS011;61288;53.446;-2.266;2023-04-01T19:27:16;7.15;;;2.08;;
73100;SDS011;61288;53.446;-2.266;2023-04-01T19:33:08;5.07;;;2.30;;
73100;SDS011;61288;53.446;-2.266;2023-04-01T19:43:50;7.88;;;2.58;;
73100;SDS011;61288;53.446;-2.266;2023-04-01T19:51:51;7.28;;;2.50;;
73100;SDS011;61288;53.446;-2.266;2023-04-01T19:54:34;8.65;;;2.50;;
73100;SDS011;61288;53.446;-2.266;2023-04-01T19:57:22;9.85;;;2.30;;
73100;SDS011;61288;53.446;-2.266;2023-04-01T20:08:49;10.10;;;2.40;;
73100;SDS011;61288;53.446;-2.266;2023-04-01T20:17:20;7.78;;;2.40;;
73100;SDS011;61288;53.446;-2.266;2023-04-01T20:28:28;7.70;;;2.65;;
73100;SDS011;61288;53.446;-2.266;2023-04-01T20:33:47;8.98;;;2.65;;
73100;SDS011;61288;53.446;-2.266;2023-04-01T20:45:10;7.72;;;2.83;;
73100;SDS011;61288;53.446;-2.266;2023-04-01T20:56:15;8.98;;;2.80;;
73100;SDS011;61288;53.446;-2.266;2023-04-01T21:28:49;6.55;;;2.47;;
73100;SDS011;61288;53.446;-2.266;2023-04-01T21:39:47;6.18;;;2.40;;
73100;SDS011;61288;53.446;-2.266;2023-04-01T21:42:23;8.13;;;2.45;;
73100;SDS011;61288;53.446;-2.266;2023-04-01T22:05:50;5.35;;;2.10;;
73100;SDS011;61288;53.446;-2.266;2023-04-01T22:20:10;7.25;;;2.42;;
73100;SDS011;61288;53.446;-2.266;2023-04-01T22:28:08;3.38;;;1.60;;
73100;SDS011;61288;53.446;-2.266;2023-04-01T22:30:50;4.32;;;1.75;;
73100;SDS011;61288;53.446;-2.266;2023-04-01T22:41:14;4.32;;;1.50;;
73100;SDS011;61288;53.446;-2.266;2023-04-01T22:43:55;5.40;;;1.88;;
73100;SDS011;61288;53.446;-2.266;2023-04-01T22:49:14;5.10;;;2.33;;
73100;SDS011;61288;53.446;-2.266;2023-04-01T22:54:56;3.67;;;1.90;;
73100;SDS011;61288;53.446;-2.266;2023-04-01T23:03:19;7.15;;;2.05;;
73100;SDS011;61288;53.446;-2.266;2023-04-01T23:05:49;5.78;;;2.10;;
73100;SDS011;61288;53.446;-2.266;2023-04-01T23:11:18;5.65;;;2.10;;
73100;SDS011;61288;53.446;-2.266;2023-04-01T23:16:45;5.05;;;1.98;;
73100;SDS011;61288;53.446;-2.266;2023-04-01T23:19:24;5.78;;;1.85;;
73100;SDS011;61288;53.446;-2.266;2023-04-01T23:27:21;7.05;;;2.17;;
73100;SDS011;61288;53.446;-2.266;2023-04-01T23:29:50;5.13;;;1.70;;
73100;SDS011;61288;53.446;-2.266;2023-04-01T23:32:23;5.10;;;1.80;;
73100;SDS011;61288;53.446;-2.266;2023-04-01T23:34:58;7.18;;;1.98;;
73100;SDS011;61288;53.446;-2.266;2023-04-01T23:37:25;3.58;;;1.70;;
73100;SDS011;61288;53.446;-2.266;2023-04-01T23:39:53;3.50;;;1.75;;
73100;SDS011;61288;53.446;-2.266;2023-04-01T23:42:30;6.13;;;1.98;;
73100;SDS011;61288;53.446;-2.266;2023-04-01T23:45:00;5.68;;;1.65;;
73100;SDS011;61288;53.446;-2.266;2023-04-01T23:47:35;7.38;;;2.40;;
73100;SDS011;61288;53.446;-2.266;2023-04-01T23:50:05;8.40;;;2.25;;
73100;SDS011;61288;53.446;-2.266;2023-04-01T23:52:40;4.93;;;2.15;;
73100;SDS011;61288;53.446;-2.266;2023-04-01T23:57:43;5.15;;;2.17;;
